Time;durP1;ratioP1;P1;durP2;ratioP2;P2;SDS_P1;SDS_P2;PMS_P1;PMS_P2;Temp;Humidity;BMP_temperature;BMP_pressure;BME280_temperature;BME280_humidity;BME280_pressure;Samples;Min_cycle;Max_cycle;Signal;HPM_P1;HPM_P2
2021/04/10 00:02:26;;;;;;;19.70;8.50;;;6.20;73.50;;;;;;4307390;33;20172;-70
2021/04/10 00:04:53;;;;;;;19.13;8.20;;;6.20;73.50;;;;;;4307203;33;20198;-69
2021/04/10 00:07:19;;;;;;;19.77;9.43;;;6.20;73.20;;;;;;4307257;33;20438;-69
2021/04/10 00:09:45;;;;;;;19.17;8.20;;;6.20;73.70;;;;;;4306218;33;20161;-70
2021/04/10 00:12:12;;;;;;;17.27;8.80;;;6.20;73.30;;;;;;4307005;33;20153;-70
2021/04/10 00:14:38;;;;;;;18.07;8.60;;;6.20;73.50;;;;;;4307570;33;20448;-70
2021/04/10 00:17:05;;;;;;;16.07;8.60;;;6.30;73.60;;;;;;4307105;33;20174;-70
2021/04/10 00:19:32;;;;;;;17.37;8.13;;;6.30;73.70;;;;;;4308405;33;20151;-70
2021/04/10 00:21:58;;;;;;;22.67;8.50;;;6.20;73.20;;;;;;4307211;33;20153;-69
2021/04/10 00:24:25;;;;;;;17.27;8.57;;;6.30;73.80;;;;;;4308415;33;20470;-70
2021/04/10 00:26:51;;;;;;;20.10;8.50;;;6.20;74.20;;;;;;4306585;33;20151;-69
2021/04/10 00:29:18;;;;;;;19.60;9.30;;;6.30;73.60;;;;;;4307315;33;20148;-69
2021/04/10 00:31:44;;;;;;;17.83;8.50;;;6.20;74.00;;;;;;4308246;33;20541;-69
2021/04/10 00:34:11;;;;;;;18.67;8.83;;;6.20;74.00;;;;;;4306827;33;20224;-70
2021/04/10 00:36:37;;;;;;;18.63;8.63;;;6.20;73.80;;;;;;4308229;33;20175;-68
2021/04/10 00:39:04;;;;;;;18.50;8.63;;;6.20;73.90;;;;;;4308077;33;20152;-67
2021/04/10 00:41:31;;;;;;;19.10;9.40;;;6.10;74.20;;;;;;4308186;33;20523;-67
2021/04/10 00:43:57;;;;;;;20.57;9.13;;;6.10;75.00;;;;;;4306729;33;20201;-68
2021/04/10 00:46:24;;;;;;;17.37;8.43;;;6.10;74.50;;;;;;4306689;33;20148;-68
2021/04/10 00:48:51;;;;;;;18.27;8.87;;;6.10;74.30;;;;;;4308485;33;20163;-68
2021/04/10 00:51:17;;;;;;;19.67;9.17;;;6.10;74.30;;;;;;4308017;33;20201;-68
2021/04/10 00:53:44;;;;;;;18.47;8.67;;;6.10;74.50;;;;;;4307156;33;20170;-68
2021/04/10 00:56:11;;;;;;;18.40;8.90;;;6.10;74.90;;;;;;4306292;33;20184;-68
2021/04/10 00:58:38;;;;;;;20.70;9.37;;;6.00;75.00;;;;;;4307210;33;20197;-68
2021/04/10 01:01:05;;;;;;;17.57;8.83;;;6.00;74.50;;;;;;4306374;33;20456;-68
2021/04/10 01:03:32;;;;;;;23.80;9.30;;;6.10;74.50;;;;;;4307847;33;20157;-68
2021/04/10 01:05:59;;;;;;;17.00;8.53;;;6.10;74.50;;;;;;4306416;33;20511;-70
2021/04/10 01:08:27;;;;;;;17.40;8.50;;;6.00;75.30;;;;;;4306508;33;20226;-68
2021/04/10 01:11:00;;;;;;;19.33;9.00;;;6.00;75.10;;;;;;4307309;33;20172;-70
2021/04/10 01:14:05;;;;;;;20.73;8.47;;;6.00;76.00;;;;;;4306263;33;20573;-69
2021/04/10 01:16:36;;;;;;;18.87;8.97;;;6.00;74.90;;;;;;4262874;33;20228;-69
2021/04/10 01:19:03;;;;;;;18.77;8.60;;;6.00;74.90;;;;;;4263179;33;20231;-69
2021/04/10 01:21:44;;;;;;;19.63;8.57;;;6.00;75.40;;;;;;4261885;33;20518;-69
2021/04/10 01:24:22;;;;;;;18.90;9.03;;;6.00;75.20;;;;;;4261546;33;20173;-68
2021/04/10 01:26:54;;;;;;;17.50;8.67;;;6.00;75.20;;;;;;4261279;33;20215;-69
2021/04/10 01:29:23;;;;;;;21.13;8.70;;;6.00;75.00;;;;;;4261744;33;20178;-68
2021/04/10 01:31:53;;;;;;;16.67;8.57;;;6.00;75.00;;;;;;4262469;33;20190;-68
2021/04/10 01:34:30;;;;;;;20.20;8.67;;;5.90;75.00;;;;;;4261572;33;20164;-69
2021/04/10 01:37:06;;;;;;;20.33;9.07;;;5.90;75.80;;;;;;4260974;33;20153;-69
2021/04/10 01:39:34;;;;;;;21.33;8.70;;;5.90;75.90;;;;;;4261912;33;20302;-69
2021/04/10 01:42:01;;;;;;;16.90;8.63;;;5.90;76.20;;;;;;4262429;33;20182;-69
2021/04/10 01:44:29;;;;;;;21.87;9.13;;;5.90;76.90;;;;;;4261967;33;20163;-69
2021/04/10 01:46:57;;;;;;;20.73;9.60;;;5.80;76.60;;;;;;4260939;33;20283;-69
2021/04/10 01:49:26;;;;;;;18.57;9.10;;;5.80;78.30;;;;;;4260421;33;20172;-69
2021/04/10 01:51:54;;;;;;;21.53;9.27;;;5.70;77.80;;;;;;4262521;33;20328;-68
2021/04/10 01:54:20;;;;;;;20.70;10.20;;;5.60;78.80;;;;;;4298262;33;20171;-68
2021/04/10 01:56:48;;;;;;;20.77;9.87;;;5.40;79.60;;;;;;4307224;33;20424;-68
2021/04/10 01:59:16;;;;;;;20.63;9.90;;;5.40;79.10;;;;;;4307125;33;20521;-68
2021/04/10 02:01:46;;;;;;;17.43;8.83;;;5.30;80.50;;;;;;4307654;33;20192;-70
2021/04/10 02:04:14;;;;;;;20.23;9.60;;;5.20;79.90;;;;;;4307159;33;20190;-70
2021/04/10 02:06:44;;;;;;;19.50;9.57;;;5.20;80.00;;;;;;4305120;33;20560;-68
2021/04/10 02:09:11;;;;;;;19.90;9.33;;;5.10;80.60;;;;;;4302328;33;20170;-69
2021/04/10 02:11:42;;;;;;;20.70;10.13;;;5.00;81.30;;;;;;4285017;33;20178;-68
2021/04/10 02:14:11;;;;;;;20.70;10.20;;;5.00;81.80;;;;;;4288475;33;20206;-69
2021/04/10 02:16:38;;;;;;;21.50;9.40;;;5.00;81.60;;;;;;4286772;33;20183;-68
2021/04/10 02:19:06;;;;;;;21.27;9.57;;;5.00;81.70;;;;;;4288370;33;20201;-69
2021/04/10 02:21:33;;;;;;;19.70;9.40;;;5.00;81.60;;;;;;4286700;33;20569;-68
2021/04/10 02:24:00;;;;;;;21.57;9.57;;;5.00;81.60;;;;;;4290268;33;20177;-68
2021/04/10 02:26:27;;;;;;;20.53;9.10;;;5.00;82.80;;;;;;4291372;33;20173;-69
2021/04/10 02:28:58;;;;;;;18.00;8.90;;;4.90;81.80;;;;;;4292326;33;20153;-68
2021/04/10 02:31:30;;;;;;;19.07;9.67;;;4.90;81.10;;;;;;4291268;33;20358;-68
2021/04/10 02:34:08;;;;;;;21.10;9.50;;;4.90;81.40;;;;;;4292411;33;20229;-69
2021/04/10 02:36:38;;;;;;;19.47;9.70;;;4.90;81.30;;;;;;4292446;33;20174;-69
2021/04/10 02:39:06;;;;;;;19.17;9.83;;;4.90;81.70;;;;;;4292440;33;20552;-68
2021/04/10 02:41:35;;;;;;;21.37;9.63;;;4.90;81.50;;;;;;4291008;33;20179;-69
2021/04/10 02:44:06;;;;;;;16.47;8.80;;;5.00;81.60;;;;;;4279777;33;20178;-68
2021/04/10 02:46:42;;;;;;;19.50;9.30;;;4.90;81.10;;;;;;4291200;33;20173;-68
2021/04/10 02:49:26;;;;;;;21.60;9.57;;;4.90;81.90;;;;;;4290815;33;20182;-68
2021/04/10 02:51:58;;;;;;;20.83;9.60;;;4.90;80.90;;;;;;4291660;33;20411;-69
2021/04/10 02:54:32;;;;;;;19.73;9.27;;;4.90;81.10;;;;;;4292337;33;20150;-69
2021/04/10 02:57:11;;;;;;;18.77;9.03;;;4.90;80.80;;;;;;4292035;33;20199;-68
2021/04/10 02:59:39;;;;;;;21.20;9.70;;;4.90;80.70;;;;;;4291427;33;20176;-68
2021/04/10 03:02:09;;;;;;;20.27;9.20;;;5.00;80.50;;;;;;4292201;33;20152;-69
2021/04/10 03:04:36;;;;;;;20.63;9.23;;;5.00;80.20;;;;;;4293705;33;20172;-69
2021/04/10 03:07:08;;;;;;;20.83;9.47;;;5.00;80.10;;;;;;4306747;33;20364;-68
2021/04/10 03:09:39;;;;;;;20.47;9.20;;;5.00;80.20;;;;;;4306556;33;20477;-69
2021/04/10 03:12:06;;;;;;;17.70;9.17;;;5.00;80.60;;;;;;4305536;33;20399;-68
2021/04/10 03:14:35;;;;;;;18.23;8.97;;;5.10;80.60;;;;;;4305272;33;20216;-69
2021/04/10 03:17:02;;;;;;;19.70;9.57;;;5.10;80.30;;;;;;4306507;33;20172;-70
2021/04/10 03:19:30;;;;;;;21.00;9.63;;;5.10;81.40;;;;;;4306006;33;20496;-70
2021/04/10 03:21:57;;;;;;;20.87;9.23;;;5.10;80.00;;;;;;4305920;33;20208;-68
2021/04/10 03:24:24;;;;;;;22.43;9.30;;;5.20;79.80;;;;;;4306398;33;20183;-68
2021/04/10 03:26:51;;;;;;;21.87;9.33;;;5.20;80.00;;;;;;4305764;33;20154;-69
2021/04/10 03:29:18;;;;;;;19.07;9.07;;;5.20;79.90;;;;;;4306313;33;20206;-68
2021/04/10 03:31:45;;;;;;;17.20;8.80;;;5.20;79.80;;;;;;4306218;33;20142;-68
2021/04/10 03:34:12;;;;;;;17.87;9.10;;;5.20;79.70;;;;;;4308146;33;20416;-68
2021/04/10 03:36:39;;;;;;;21.23;9.27;;;5.30;79.70;;;;;;4309042;33;20168;-68
2021/04/10 03:39:05;;;;;;;19.33;9.50;;;5.20;79.90;;;;;;4309034;33;20156;-68
2021/04/10 03:41:32;;;;;;;20.10;9.30;;;5.20;80.00;;;;;;4308929;33;20193;-68
2021/04/10 03:43:58;;;;;;;19.67;8.83;;;5.10;80.00;;;;;;4309157;33;20171;-67
2021/04/10 03:46:25;;;;;;;18.07;9.20;;;5.20;79.80;;;;;;4307640;33;20504;-67
2021/04/10 03:48:52;;;;;;;16.83;8.37;;;5.10;79.90;;;;;;4308650;33;20164;-68
2021/04/10 03:51:20;;;;;;;16.73;9.00;;;5.10;80.00;;;;;;4308330;33;20197;-68
2021/04/10 03:53:46;;;;;;;19.70;9.20;;;5.10;80.20;;;;;;4309146;33;20207;-68
2021/04/10 03:56:12;;;;;;;20.53;9.60;;;5.10;80.50;;;;;;4307591;33;20186;-68
2021/04/10 03:58:41;;;;;;;22.33;8.87;;;5.10;80.30;;;;;;4308624;33;20146;-68
2021/04/10 04:01:07;;;;;;;20.13;9.20;;;5.10;80.60;;;;;;4307265;33;20152;-68
2021/04/10 04:03:35;;;;;;;20.40;9.10;;;5.10;80.80;;;;;;4308485;33;20160;-68
2021/04/10 04:06:02;;;;;;;18.10;8.90;;;5.00;80.80;;;;;;4307142;33;20197;-68
2021/04/10 04:08:28;;;;;;;22.97;9.13;;;5.10;80.50;;;;;;4308605;33;20163;-69
2021/04/10 04:10:55;;;;;;;17.53;8.90;;;5.10;80.60;;;;;;4307287;33;20473;-68
2021/04/10 04:13:21;;;;;;;17.80;9.17;;;5.00;80.90;;;;;;4308113;33;20312;-68
2021/04/10 04:15:47;;;;;;;19.30;8.90;;;5.00;81.00;;;;;;4307885;33;20436;-69
2021/04/10 04:18:14;;;;;;;19.37;9.20;;;5.00;80.80;;;;;;4308221;33;20411;-69
2021/04/10 04:20:41;;;;;;;17.07;8.83;;;5.00;81.20;;;;;;4308127;33;20462;-69
2021/04/10 04:23:07;;;;;;;17.70;8.87;;;5.00;81.40;;;;;;4307761;33;20171;-69
2021/04/10 04:25:33;;;;;;;15.70;8.73;;;4.90;81.40;;;;;;4307184;33;20398;-69
2021/04/10 04:28:00;;;;;;;17.97;8.60;;;5.00;81.50;;;;;;4308505;33;20164;-69
2021/04/10 04:30:27;;;;;;;17.80;9.57;;;5.00;81.20;;;;;;4307037;33;20201;-69
2021/04/10 04:32:53;;;;;;;18.17;9.10;;;5.00;81.50;;;;;;4308362;33;20203;-69
2021/04/10 04:35:20;;;;;;;19.07;9.20;;;5.10;81.40;;;;;;4307033;33;20192;-69
2021/04/10 04:37:46;;;;;;;18.53;9.03;;;5.10;81.20;;;;;;4308334;33;20145;-68
2021/04/10 04:40:14;;;;;;;18.60;8.70;;;5.10;81.20;;;;;;4308322;33;20424;-68
2021/04/10 04:42:40;;;;;;;19.20;8.87;;;5.10;81.40;;;;;;4305834;33;20177;-68
2021/04/10 04:45:08;;;;;;;18.60;9.33;;;5.20;81.10;;;;;;4307089;33;20143;-69
2021/04/10 04:47:34;;;;;;;22.63;9.37;;;5.20;81.00;;;;;;4307667;33;20151;-69
2021/04/10 04:50:01;;;;;;;21.93;9.70;;;5.20;80.90;;;;;;4306543;33;20170;-69
2021/04/10 04:52:30;;;;;;;18.13;8.80;;;5.30;81.10;;;;;;4307852;33;20349;-69
2021/04/10 04:54:57;;;;;;;19.67;9.20;;;5.40;80.40;;;;;;4308840;33;20522;-69
2021/04/10 04:57:23;;;;;;;20.83;9.43;;;5.50;80.30;;;;;;4308294;33;20208;-68
2021/04/10 04:59:50;;;;;;;19.30;9.43;;;5.40;80.20;;;;;;4308055;33;20178;-68
2021/04/10 05:02:16;;;;;;;20.97;9.23;;;5.50;80.00;;;;;;4307946;33;20210;-68
2021/04/10 05:04:43;;;;;;;17.00;8.90;;;5.50;79.60;;;;;;4307481;33;20169;-69
2021/04/10 05:07:09;;;;;;;20.90;9.73;;;5.70;80.10;;;;;;4306487;33;20150;-69
2021/04/10 05:09:35;;;;;;;19.17;9.33;;;5.80;80.30;;;;;;4307296;33;20194;-69
2021/04/10 05:12:03;;;;;;;17.93;9.73;;;5.90;79.00;;;;;;4306384;33;20514;-69
2021/04/10 05:14:29;;;;;;;19.30;9.23;;;6.00;78.10;;;;;;4306244;33;20375;-68
2021/04/10 05:16:55;;;;;;;17.03;8.77;;;6.10;77.80;;;;;;4306385;33;20188;-68
2021/04/10 05:19:22;;;;;;;18.47;9.47;;;6.10;77.40;;;;;;4307018;33;20512;-69
2021/04/10 05:21:48;;;;;;;19.50;9.50;;;6.30;77.20;;;;;;4306815;33;20154;-68
2021/04/10 05:24:14;;;;;;;21.10;9.40;;;6.40;76.70;;;;;;4307556;33;20216;-68
2021/04/10 05:26:41;;;;;;;19.97;9.17;;;6.50;76.40;;;;;;4307636;33;20393;-68
2021/04/10 05:29:07;;;;;;;22.83;9.23;;;6.50;76.60;;;;;;4306096;33;20477;-68
2021/04/10 05:31:34;;;;;;;19.43;9.73;;;6.50;75.80;;;;;;4307382;33;20215;-70
2021/04/10 05:34:00;;;;;;;20.87;9.73;;;6.50;76.10;;;;;;4307449;33;20158;-70
2021/04/10 05:36:26;;;;;;;20.40;9.67;;;6.50;76.40;;;;;;4306097;33;20216;-69
2021/04/10 05:38:53;;;;;;;22.73;9.83;;;6.70;76.00;;;;;;4306828;33;20492;-68
2021/04/10 05:41:19;;;;;;;18.40;9.07;;;6.70;75.90;;;;;;4305493;33;20413;-69
2021/04/10 05:43:45;;;;;;;21.63;10.00;;;6.80;75.50;;;;;;4307432;33;20191;-70
2021/04/10 05:46:12;;;;;;;21.47;9.90;;;6.80;75.20;;;;;;4307399;33;20155;-69
2021/04/10 05:48:38;;;;;;;21.53;9.73;;;6.90;75.30;;;;;;4307351;33;20153;-69
2021/04/10 05:51:05;;;;;;;20.00;10.20;;;7.00;75.10;;;;;;4307287;33;20405;-69
2021/04/10 05:53:31;;;;;;;21.33;10.10;;;7.10;74.70;;;;;;4307171;33;20200;-69
2021/04/10 05:55:58;;;;;;;19.33;9.30;;;7.10;74.50;;;;;;4307485;33;20206;-69
2021/04/10 05:58:24;;;;;;;21.10;9.80;;;7.30;74.30;;;;;;4307200;33;20172;-69
2021/04/10 06:00:51;;;;;;;21.03;10.10;;;7.40;73.90;;;;;;4305662;33;20473;-69
2021/04/10 06:03:17;;;;;;;20.33;9.80;;;7.40;73.70;;;;;;4307069;33;20168;-69
2021/04/10 06:05:46;;;;;;;23.07;10.33;;;7.30;74.20;;;;;;4305518;33;20226;-69
2021/04/10 06:08:13;;;;;;;22.63;9.80;;;7.30;74.10;;;;;;4306552;33;20488;-69
2021/04/10 06:10:40;;;;;;;23.70;9.73;;;7.40;74.10;;;;;;4305570;33;20200;-69
2021/04/10 06:13:07;;;;;;;20.57;10.30;;;7.30;74.20;;;;;;4306930;33;20231;-68
2021/04/10 06:15:33;;;;;;;21.20;9.50;;;7.30;74.60;;;;;;4306813;33;20177;-69
2021/04/10 06:18:00;;;;;;;19.10;10.10;;;7.30;74.50;;;;;;4305129;33;20216;-69
2021/04/10 06:20:26;;;;;;;23.77;10.10;;;7.40;74.40;;;;;;4305497;33;20408;-69
2021/04/10 06:22:53;;;;;;;22.33;10.00;;;7.50;74.20;;;;;;4306901;33;20423;-69
2021/04/10 06:25:19;;;;;;;22.83;10.20;;;7.50;74.30;;;;;;4306882;33;20216;-68
2021/04/10 06:27:46;;;;;;;21.80;10.27;;;7.50;74.20;;;;;;4305709;33;20417;-69
2021/04/10 06:30:13;;;;;;;25.07;10.17;;;7.70;73.80;;;;;;4306277;33;20208;-69
2021/04/10 06:32:39;;;;;;;18.40;9.83;;;7.80;74.10;;;;;;4304370;33;20521;-69
2021/04/10 06:35:07;;;;;;;21.43;9.47;;;7.90;73.70;;;;;;4306797;33;20442;-69
2021/04/10 06:37:35;;;;;;;18.80;9.93;;;8.10;73.10;;;;;;4306165;33;20184;-68
2021/04/10 06:40:04;;;;;;;21.50;10.07;;;8.10;72.70;;;;;;4306542;33;20152;-68
2021/04/10 06:42:32;;;;;;;22.27;10.40;;;8.10;72.30;;;;;;4306380;33;20160;-68
2021/04/10 06:44:58;;;;;;;21.00;9.57;;;8.10;72.30;;;;;;4306044;33;20145;-68
2021/04/10 06:47:27;;;;;;;22.17;10.20;;;8.20;72.60;;;;;;4305406;33;20482;-68
2021/04/10 06:49:53;;;;;;;22.27;10.40;;;8.30;72.20;;;;;;4306735;33;20513;-69
2021/04/10 06:52:20;;;;;;;22.80;10.53;;;8.40;71.70;;;;;;4306484;33;20234;-69
2021/04/10 06:54:56;;;;;;;21.00;9.80;;;8.50;72.40;;;;;;4305133;33;20175;-69
2021/04/10 06:57:27;;;;;;;19.07;10.13;;;8.60;70.40;;;;;;4306955;33;20180;-69
2021/04/10 07:00:04;;;;;;;19.37;9.83;;;8.90;69.90;;;;;;4306546;33;20203;-68
2021/04/10 07:02:32;;;;;;;22.37;10.93;;;9.00;69.20;;;;;;4305127;33;20149;-69
2021/04/10 07:04:59;;;;;;;19.63;10.20;;;9.30;69.30;;;;;;4305858;33;20193;-68
2021/04/10 07:07:27;;;;;;;20.07;10.10;;;9.50;68.70;;;;;;4306597;33;20189;-68
2021/04/10 07:09:54;;;;;;;19.83;10.20;;;9.50;67.80;;;;;;4309643;33;20246;-69
2021/04/10 07:12:21;;;;;;;21.33;10.23;;;9.60;67.20;;;;;;4309458;33;20179;-68
2021/04/10 07:14:48;;;;;;;19.53;9.80;;;9.70;66.80;;;;;;4309492;33;20197;-68
2021/04/10 07:17:15;;;;;;;19.57;9.63;;;9.90;66.30;;;;;;4309299;33;20528;-69
2021/04/10 07:19:41;;;;;;;21.20;9.90;;;10.10;65.90;;;;;;4309261;33;20204;-69
2021/04/10 07:22:13;;;;;;;21.20;10.33;;;10.30;64.30;;;;;;4309168;33;20157;-69
2021/04/10 07:24:47;;;;;;;19.50;9.90;;;10.40;64.10;;;;;;4309325;33;20205;-69
2021/04/10 07:27:16;;;;;;;19.97;9.90;;;10.60;63.20;;;;;;4309726;33;20211;-68
2021/04/10 07:29:53;;;;;;;20.10;9.90;;;10.80;62.30;;;;;;4309179;33;20165;-69
2021/04/10 07:32:35;;;;;;;21.23;10.63;;;11.00;62.00;;;;;;4309035;33;20548;-69
2021/04/10 07:35:04;;;;;;;21.37;10.47;;;11.10;61.90;;;;;;4309513;33;20146;-69
2021/04/10 07:37:46;;;;;;;19.93;10.40;;;11.30;61.00;;;;;;4307487;33;20145;-68
2021/04/10 07:40:13;;;;;;;19.10;9.77;;;11.40;60.70;;;;;;4308022;33;20171;-69
2021/04/10 07:42:41;;;;;;;20.50;9.57;;;11.50;59.60;;;;;;4308107;33;20506;-68
2021/04/10 07:45:34;;;;;;;20.67;9.77;;;11.50;59.80;;;;;;4307785;33;20390;-69
2021/04/10 07:48:19;;;;;;;19.23;9.97;;;11.80;59.40;;;;;;4309222;33;20509;-69
2021/04/10 07:50:46;;;;;;;22.20;10.30;;;11.80;59.10;;;;;;4308926;33;20149;-69
2021/04/10 07:53:27;;;;;;;20.77;9.97;;;11.80;58.80;;;;;;4308771;33;20180;-70
2021/04/10 07:55:57;;;;;;;20.00;9.70;;;11.80;59.00;;;;;;4308361;33;20184;-70
2021/04/10 07:58:30;;;;;;;21.80;10.40;;;12.00;58.70;;;;;;4308764;33;20439;-70
2021/04/10 08:01:00;;;;;;;23.13;10.20;;;12.00;58.40;;;;;;4307832;33;20145;-67
2021/04/10 08:03:29;;;;;;;21.33;10.43;;;12.30;58.00;;;;;;4307946;33;20189;-69
2021/04/10 08:06:06;;;;;;;21.73;10.97;;;12.30;57.80;;;;;;4307458;33;20189;-69
2021/04/10 08:08:34;;;;;;;19.07;9.90;;;12.20;58.00;;;;;;4308869;33;20154;-68
2021/04/10 08:11:05;;;;;;;20.63;9.77;;;12.50;58.30;;;;;;4308361;33;20145;-69
2021/04/10 08:13:33;;;;;;;23.63;10.23;;;12.80;58.00;;;;;;4306693;33;20434;-71
2021/04/10 08:16:11;;;;;;;22.77;9.83;;;13.00;57.10;;;;;;4308091;33;20519;-71
2021/04/10 08:18:57;;;;;;;20.70;10.33;;;13.20;56.90;;;;;;4307022;33;20468;-70
2021/04/10 08:21:37;;;;;;;21.33;10.23;;;13.50;55.60;;;;;;4308080;33;20460;-69
2021/04/10 08:24:24;;;;;;;18.93;10.07;;;13.60;54.20;;;;;;4308181;33;20209;-68
2021/04/10 08:26:52;;;;;;;19.67;9.87;;;13.90;54.40;;;;;;4306931;33;20212;-69
2021/04/10 08:29:20;;;;;;;23.63;10.83;;;14.60;53.20;;;;;;4306837;33;20479;-68
2021/04/10 08:31:47;;;;;;;23.33;11.00;;;15.00;51.50;;;;;;4308218;33;20176;-69
2021/04/10 08:34:14;;;;;;;19.87;10.50;;;15.20;50.20;;;;;;4308171;33;20215;-69
2021/04/10 08:36:43;;;;;;;20.73;10.40;;;15.70;50.80;;;;;;4306829;33;20511;-70
2021/04/10 08:39:11;;;;;;;20.83;10.60;;;16.20;48.80;;;;;;4308231;33;20141;-69
2021/04/10 08:41:40;;;;;;;19.70;10.47;;;16.40;47.90;;;;;;4308134;33;20188;-68
2021/04/10 08:44:09;;;;;;;20.50;10.30;;;16.50;47.20;;;;;;4308084;33;20146;-68
2021/04/10 08:46:37;;;;;;;19.40;10.87;;;16.90;48.40;;;;;;4308037;33;20201;-67
2021/04/10 08:49:05;;;;;;;20.50;10.77;;;17.20;46.80;;;;;;4306518;33;20189;-69
2021/04/10 08:51:38;;;;;;;20.67;10.73;;;17.20;46.90;;;;;;4307842;33;20377;-69
2021/04/10 08:54:09;;;;;;;19.40;10.87;;;17.00;45.80;;;;;;4306455;33;20184;-67
2021/04/10 08:56:36;;;;;;;25.47;10.80;;;17.00;45.80;;;;;;4307597;33;20251;-66
2021/04/10 08:59:13;;;;;;;22.73;10.43;;;16.60;45.90;;;;;;4307710;33;20150;-68
2021/04/10 09:01:42;;;;;;;21.10;10.40;;;16.50;46.40;;;;;;4307963;33;20165;-68
2021/04/10 09:04:10;;;;;;;19.20;10.50;;;16.60;47.30;;;;;;4307225;33;20184;-68
2021/04/10 09:06:40;;;;;;;19.63;9.90;;;17.00;46.70;;;;;;4306089;33;20216;-68
2021/04/10 09:09:15;;;;;;;18.87;10.53;;;17.60;45.40;;;;;;4306125;33;20176;-68
2021/04/10 09:11:44;;;;;;;20.37;10.50;;;17.90;44.40;;;;;;4306740;33;20452;-68
2021/04/10 09:14:14;;;;;;;18.57;10.20;;;18.20;44.00;;;;;;4306170;33;20476;-70
2021/04/10 09:16:43;;;;;;;19.33;10.07;;;18.30;43.00;;;;;;4306856;33;20205;-69
2021/04/10 09:19:15;;;;;;;20.63;10.13;;;18.40;42.30;;;;;;4307595;33;20158;-67
2021/04/10 09:21:43;;;;;;;18.30;9.33;;;18.60;42.50;;;;;;4307120;33;20208;-68
2021/04/10 09:24:23;;;;;;;16.43;9.53;;;18.60;41.70;;;;;;4307184;33;20157;-68
2021/04/10 09:26:56;;;;;;;16.83;10.10;;;18.70;41.80;;;;;;4307398;33;20505;-68
2021/04/10 09:29:23;;;;;;;20.20;9.87;;;18.20;42.10;;;;;;4306716;33;20149;-67
2021/04/10 09:31:54;;;;;;;20.63;9.73;;;18.30;43.00;;;;;;4306992;33;20218;-70
2021/04/10 09:34:43;;;;;;;19.43;9.80;;;18.50;42.70;;;;;;4307249;33;20212;-68
2021/04/10 09:37:20;;;;;;;18.63;9.30;;;18.50;41.60;;;;;;4307281;33;20197;-69
2021/04/10 09:40:06;;;;;;;19.17;10.07;;;18.20;42.90;;;;;;4306342;33;20400;-68
2021/04/10 09:42:39;;;;;;;20.07;10.33;;;18.60;42.10;;;;;;4306594;33;20196;-69
2021/04/10 09:45:31;;;;;;;18.97;9.80;;;18.80;41.20;;;;;;4306243;33;20184;-68
2021/04/10 09:47:58;;;;;;;20.23;10.30;;;19.10;41.30;;;;;;4307120;33;20476;-69
2021/04/10 09:50:26;;;;;;;17.50;10.00;;;19.10;41.30;;;;;;4305997;33;20511;-69
2021/04/10 09:53:04;;;;;;;18.27;10.27;;;19.10;41.60;;;;;;4306806;33;20236;-68
2021/04/10 09:55:33;;;;;;;15.37;9.30;;;19.40;40.60;;;;;;4306945;33;20193;-69
2021/04/10 09:58:02;;;;;;;17.87;9.87;;;19.70;39.70;;;;;;4306535;33;20153;-67
2021/04/10 10:00:34;;;;;;;19.27;10.03;;;19.60;40.00;;;;;;4306694;33;20145;-69
2021/04/10 10:03:02;;;;;;;17.80;9.90;;;19.80;41.20;;;;;;4306842;33;20153;-68
2021/04/10 10:05:34;;;;;;;19.63;10.47;;;19.90;40.50;;;;;;4304748;33;20295;-68
2021/04/10 10:08:27;;;;;;;18.17;9.97;;;20.10;39.60;;;;;;4306680;33;20189;-69
2021/04/10 10:11:07;;;;;;;18.03;10.20;;;20.10;40.30;;;;;;4304956;33;20149;-69
2021/04/10 10:13:35;;;;;;;16.47;9.47;;;20.10;39.20;;;;;;4306518;33;20160;-69
2021/04/10 10:16:03;;;;;;;16.83;9.63;;;18.90;38.20;;;;;;4306842;33;20209;-70
2021/04/10 10:18:35;;;;;;;19.00;10.40;;;19.20;38.50;;;;;;4306314;33;20188;-69
2021/04/10 10:21:11;;;;;;;16.13;9.87;;;19.00;39.60;;;;;;4305480;33;20215;-70
2021/04/10 10:23:49;;;;;;;18.47;10.03;;;19.20;40.60;;;;;;4306377;33;20152;-71
2021/04/10 10:26:20;;;;;;;17.30;10.20;;;19.50;40.10;;;;;;4306611;33;20175;-70
2021/04/10 10:28:51;;;;;;;22.23;10.87;;;19.70;40.10;;;;;;4300662;33;20217;-70
2021/04/10 10:31:21;;;;;;;19.93;10.57;;;20.10;40.60;;;;;;4302723;33;20221;-71
2021/04/10 10:34:06;;;;;;;19.43;9.93;;;20.00;39.20;;;;;;4305159;33;20464;-70
2021/04/10 10:36:36;;;;;;;19.30;10.13;;;19.60;39.00;;;;;;4306554;33;20187;-69
2021/04/10 10:39:06;;;;;;;18.40;10.43;;;20.10;40.30;;;;;;4304770;33;20213;-69
2021/04/10 10:41:45;;;;;;;19.03;10.87;;;20.70;38.60;;;;;;4306249;33;20169;-68
2021/04/10 10:44:12;;;;;;;17.77;10.83;;;21.00;37.10;;;;;;4302780;33;20481;-69
2021/04/10 10:46:40;;;;;;;16.83;10.30;;;21.20;36.80;;;;;;4306119;33;20229;-69
2021/04/10 10:49:08;;;;;;;20.27;10.70;;;21.40;37.00;;;;;;4304125;33;20188;-67
2021/04/10 10:51:37;;;;;;;17.57;10.67;;;21.40;35.70;;;;;;4304246;33;20438;-69
2021/04/10 10:54:04;;;;;;;21.93;10.97;;;21.20;35.80;;;;;;4306085;33;20240;-69
2021/04/10 10:56:33;;;;;;;17.90;11.10;;;20.70;35.70;;;;;;4304884;33;20188;-70
2021/04/10 10:59:03;;;;;;;17.10;10.87;;;20.60;37.10;;;;;;4304715;33;20438;-69
2021/04/10 11:01:36;;;;;;;18.00;10.83;;;21.10;36.50;;;;;;4304506;33;20180;-69
2021/04/10 11:04:18;;;;;;;19.10;10.40;;;21.50;35.70;;;;;;4304072;33;20216;-69
2021/04/10 11:06:48;;;;;;;15.87;10.00;;;21.00;34.80;;;;;;4305101;33;20192;-69
2021/04/10 11:09:21;;;;;;;17.77;10.13;;;20.90;35.20;;;;;;4305863;33;20232;-69
2021/04/10 11:11:49;;;;;;;16.47;10.27;;;21.00;35.50;;;;;;4304748;33;20376;-68
2021/04/10 11:14:20;;;;;;;19.47;10.27;;;21.10;35.20;;;;;;4304448;33;20161;-68
2021/04/10 11:16:48;;;;;;;16.53;10.03;;;21.20;35.10;;;;;;4305391;33;20169;-68
2021/04/10 11:19:39;;;;;;;17.23;10.07;;;20.80;34.00;;;;;;4303962;33;20166;-66
2021/04/10 11:22:12;;;;;;;17.83;9.63;;;19.70;35.60;;;;;;4306031;33;20508;-71
2021/04/10 11:24:41;;;;;;;15.37;9.53;;;19.50;36.20;;;;;;4304679;33;20225;-67
2021/04/10 11:27:14;;;;;;;17.77;9.90;;;19.30;37.00;;;;;;4305243;33;20175;-68
2021/04/10 11:29:51;;;;;;;18.77;10.07;;;19.10;37.20;;;;;;4305026;33;20176;-70
2021/04/10 11:32:22;;;;;;;16.80;10.10;;;18.90;37.80;;;;;;4305544;33;20165;-69
2021/04/10 11:34:49;;;;;;;17.30;10.10;;;18.60;38.70;;;;;;4305514;33;20146;-67
2021/04/10 11:37:20;;;;;;;18.17;9.70;;;18.00;39.60;;;;;;4304341;33;20183;-68
2021/04/10 11:39:56;;;;;;;18.87;9.50;;;18.00;39.90;;;;;;4305623;33;20203;-67
2021/04/10 11:42:29;;;;;;;16.77;10.03;;;17.90;40.50;;;;;;4304011;33;20213;-67
2021/04/10 11:44:58;;;;;;;18.90;10.23;;;17.80;40.10;;;;;;4304342;33;20195;-67
2021/04/10 11:47:27;;;;;;;15.03;9.23;;;18.10;40.50;;;;;;4305650;33;20184;-68
2021/04/10 11:50:05;;;;;;;14.73;9.00;;;17.90;39.40;;;;;;4305947;33;20516;-67
2021/04/10 11:52:31;;;;;;;17.77;9.23;;;17.70;39.50;;;;;;4304883;33;20180;-66
2021/04/10 11:55:11;;;;;;;13.53;8.57;;;17.80;39.60;;;;;;4307455;33;20149;-67
2021/04/10 11:57:40;;;;;;;16.67;9.23;;;17.80;39.40;;;;;;4306945;33;20183;-67
2021/04/10 12:00:09;;;;;;;17.10;9.40;;;17.60;39.70;;;;;;4308173;33;20224;-69
2021/04/10 12:02:38;;;;;;;17.73;8.90;;;17.50;40.30;;;;;;4308106;33;20195;-66
2021/04/10 12:05:42;;;;;;;14.27;8.70;;;17.60;40.30;;;;;;4306911;33;20165;-67
2021/04/10 12:08:11;;;;;;;20.30;9.00;;;17.80;40.30;;;;;;4263616;33;20580;-68
2021/04/10 12:10:58;;;;;;;14.97;9.33;;;18.10;41.00;;;;;;4263635;33;20432;-68
2021/04/10 12:13:27;;;;;;;16.47;9.17;;;18.30;41.00;;;;;;4263018;33;20209;-69
2021/04/10 12:15:56;;;;;;;14.53;8.70;;;18.30;40.00;;;;;;4263371;33;20345;-68
2021/04/10 12:18:24;;;;;;;17.77;9.80;;;18.10;39.40;;;;;;4262583;33;20205;-70
2021/04/10 12:20:53;;;;;;;13.77;8.47;;;17.80;39.70;;;;;;4263515;33;20176;-68
2021/04/10 12:23:21;;;;;;;16.40;9.10;;;17.70;41.10;;;;;;4261904;33;20186;-67
2021/04/10 12:25:48;;;;;;;15.13;8.60;;;17.70;41.20;;;;;;4262856;33;20390;-67
2021/04/10 12:28:16;;;;;;;14.57;8.47;;;17.50;40.70;;;;;;4262289;33;20256;-69
2021/04/10 12:30:42;;;;;;;14.87;8.50;;;17.50;41.20;;;;;;4262754;33;20146;-67
2021/04/10 12:33:09;;;;;;;14.90;8.00;;;17.60;41.40;;;;;;4260983;33;20162;-69
2021/04/10 12:35:35;;;;;;;12.33;8.10;;;17.80;42.00;;;;;;4262682;33;20161;-70
2021/04/10 12:38:03;;;;;;;15.70;7.60;;;17.90;40.70;;;;;;4261544;33;20189;-67
2021/04/10 12:40:31;;;;;;;13.43;7.90;;;17.80;40.90;;;;;;4261667;33;20177;-68
2021/04/10 12:42:57;;;;;;;13.97;7.67;;;17.70;40.50;;;;;;4301540;33;20170;-68
2021/04/10 12:45:24;;;;;;;12.57;7.30;;;17.60;40.70;;;;;;4307848;33;20252;-67
2021/04/10 12:47:51;;;;;;;14.60;7.90;;;17.60;41.00;;;;;;4307768;33;20145;-67
2021/04/10 12:50:20;;;;;;;13.57;7.33;;;17.50;41.20;;;;;;4307680;33;20209;-67
2021/04/10 12:52:47;;;;;;;14.50;7.80;;;17.30;41.40;;;;;;4308311;33;20200;-68
2021/04/10 12:55:14;;;;;;;12.50;7.80;;;17.10;42.20;;;;;;4306392;33;20185;-68